sensor_id;sensor_type;location;lat;lon;timestamp;temperature;humidity
36444;DHT22;24692;45.642;13.806;2023-04-30T00:02:07;14.20;99.90
36444;DHT22;24692;45.642;13.806;2023-04-30T00:04:33;14.30;99.90
36444;DHT22;24692;45.642;13.806;2023-04-30T00:06:58;14.30;99.90
36444;DHT22;24692;45.642;13.806;2023-04-30T00:09:24;14.30;99.90
36444;DHT22;24692;45.642;13.806;2023-04-30T00:11:49;14.30;99.90
36444;DHT22;24692;45.642;13.806;2023-04-30T00:14:15;14.20;99.90
36444;DHT22;24692;45.642;13.806;2023-04-30T00:16:41;14.20;99.90
36444;DHT22;24692;45.642;13.806;2023-04-30T00:19:07;14.20;99.90
36444;DHT22;24692;45.642;13.806;2023-04-30T00:21:33;14.30;99.90
36444;DHT22;24692;45.642;13.806;2023-04-30T00:23:58;14.30;99.90
36444;DHT22;24692;45.642;13.806;2023-04-30T00:26:27;14.30;99.90
36444;DHT22;24692;45.642;13.806;2023-04-30T00:28:53;14.30;99.90
36444;DHT22;24692;45.642;13.806;2023-04-30T00:31:18;14.20;99.90
36444;DHT22;24692;45.642;13.806;2023-04-30T00:33:44;14.30;99.90
36444;DHT22;24692;45.642;13.806;2023-04-30T00:36:10;14.40;99.90
36444;DHT22;24692;45.642;13.806;2023-04-30T00:38:35;14.20;99.90
36444;DHT22;24692;45.642;13.806;2023-04-30T00:41:01;14.20;99.90
36444;DHT22;24692;45.642;13.806;2023-04-30T00:43:27;14.30;99.90
36444;DHT22;24692;45.642;13.806;2023-04-30T00:45:52;14.30;99.90
36444;DHT22;24692;45.642;13.806;2023-04-30T00:48:18;14.40;99.90
36444;DHT22;24692;45.642;13.806;2023-04-30T00:50:44;14.40;99.90
36444;DHT22;24692;45.642;13.806;2023-04-30T00:53:10;14.40;99.90
36444;DHT22;24692;45.642;13.806;2023-04-30T00:55:37;14.40;99.90
36444;DHT22;24692;45.642;13.806;2023-04-30T00:58:03;14.50;99.90
36444;DHT22;24692;45.642;13.806;2023-04-30T01:00:29;14.50;99.90
36444;DHT22;24692;45.642;13.806;2023-04-30T01:02:55;14.40;99.90
36444;DHT22;24692;45.642;13.806;2023-04-30T01:05:21;14.20;99.90
36444;DHT22;24692;45.642;13.806;2023-04-30T01:07:47;14.20;99.90
36444;DHT22;24692;45.642;13.806;2023-04-30T01:10:14;14.10;99.90
36444;DHT22;24692;45.642;13.806;2023-04-30T01:13:16;14.10;99.90
36444;DHT22;24692;45.642;13.806;2023-04-30T01:15:51;14.10;99.90
36444;DHT22;24692;45.642;13.806;2023-04-30T01:18:32;14.10;99.90
36444;DHT22;24692;45.642;13.806;2023-04-30T01:21:03;14.20;99.90
36444;DHT22;24692;45.642;13.806;2023-04-30T01:26:26;14.30;99.90
36444;DHT22;24692;45.642;13.806;2023-04-30T01:28:56;14.30;99.90
36444;DHT22;24692;45.642;13.806;2023-04-30T01:31:26;14.30;99.90
36444;DHT22;24692;45.642;13.806;2023-04-30T01:33:52;14.30;99.90
36444;DHT22;24692;45.642;13.806;2023-04-30T01:42:21;14.40;99.90
36444;DHT22;24692;45.642;13.806;2023-04-30T01:44:54;14.30;99.90
36444;DHT22;24692;45.642;13.806;2023-04-30T01:52:49;14.30;99.90
36444;DHT22;24692;45.642;13.806;2023-04-30T01:55:40;14.40;99.90
36444;DHT22;24692;45.642;13.806;2023-04-30T01:58:09;14.40;99.90
36444;DHT22;24692;45.642;13.806;2023-04-30T02:00:36;14.40;99.90
36444;DHT22;24692;45.642;13.806;2023-04-30T02:03:02;14.40;99.90
36444;DHT22;24692;45.642;13.806;2023-04-30T02:05:28;14.50;99.90
36444;DHT22;24692;45.642;13.806;2023-04-30T02:07:54;14.40;99.90
36444;DHT22;24692;45.642;13.806;2023-04-30T02:10:22;14.40;99.90
36444;DHT22;24692;45.642;13.806;2023-04-30T02:12:48;14.30;99.90
36444;DHT22;24692;45.642;13.806;2023-04-30T02:15:14;14.30;99.90
36444;DHT22;24692;45.642;13.806;2023-04-30T02:17:40;14.30;99.90
36444;DHT22;24692;45.642;13.806;2023-04-30T02:20:06;14.30;99.90
36444;DHT22;24692;45.642;13.806;2023-04-30T02:22:32;14.30;99.90
36444;DHT22;24692;45.642;13.806;2023-04-30T02:24:58;14.20;99.90
36444;DHT22;24692;45.642;13.806;2023-04-30T02:27:25;14.10;99.90
36444;DHT22;24692;45.642;13.806;2023-04-30T02:29:52;14.10;99.90
36444;DHT22;24692;45.642;13.806;2023-04-30T02:32:18;14.10;99.90
36444;DHT22;24692;45.642;13.806;2023-04-30T02:34:44;14.00;99.90
36444;DHT22;24692;45.642;13.806;2023-04-30T02:37:09;14.00;99.90
36444;DHT22;24692;45.642;13.806;2023-04-30T02:39:35;13.90;99.90
36444;DHT22;24692;45.642;13.806;2023-04-30T02:42:01;13.90;99.90
36444;DHT22;24692;45.642;13.806;2023-04-30T02:44:28;13.90;99.90
36444;DHT22;24692;45.642;13.806;2023-04-30T02:46:53;13.90;99.90
36444;DHT22;24692;45.642;13.806;2023-04-30T02:49:19;13.90;99.90
36444;DHT22;24692;45.642;13.806;2023-04-30T02:51:45;13.90;99.90
36444;DHT22;24692;45.642;13.806;2023-04-30T02:54:11;13.90;99.90
36444;DHT22;24692;45.642;13.806;2023-04-30T02:56:36;13.90;99.90
36444;DHT22;24692;45.642;13.806;2023-04-30T02:59:03;13.90;99.90
36444;DHT22;24692;45.642;13.806;2023-04-30T03:01:29;13.90;99.90
36444;DHT22;24692;45.642;13.806;2023-04-30T03:04:02;13.80;99.90
36444;DHT22;24692;45.642;13.806;2023-04-30T03:06:29;13.80;99.90
36444;DHT22;24692;45.642;13.806;2023-04-30T03:08:55;13.80;99.90
36444;DHT22;24692;45.642;13.806;2023-04-30T03:11:21;13.70;99.90
36444;DHT22;24692;45.642;13.806;2023-04-30T03:13:47;13.70;99.90
36444;DHT22;24692;45.642;13.806;2023-04-30T03:16:16;13.70;99.90
36444;DHT22;24692;45.642;13.806;2023-04-30T03:18:46;13.70;99.90
36444;DHT22;24692;45.642;13.806;2023-04-30T03:21:12;13.70;99.90
36444;DHT22;24692;45.642;13.806;2023-04-30T03:23:38;13.70;99.90
36444;DHT22;24692;45.642;13.806;2023-04-30T03:26:04;13.70;99.90
36444;DHT22;24692;45.642;13.806;2023-04-30T03:28:30;13.60;99.90
36444;DHT22;24692;45.642;13.806;2023-04-30T03:30:55;13.60;99.90
36444;DHT22;24692;45.642;13.806;2023-04-30T03:33:21;13.60;99.90
36444;DHT22;24692;45.642;13.806;2023-04-30T03:35:47;13.60;99.90
36444;DHT22;24692;45.642;13.806;2023-04-30T03:38:14;13.50;99.90
36444;DHT22;24692;45.642;13.806;2023-04-30T03:40:40;13.60;99.90
36444;DHT22;24692;45.642;13.806;2023-04-30T03:43:05;13.50;99.90
36444;DHT22;24692;45.642;13.806;2023-04-30T03:45:31;13.40;99.90
36444;DHT22;24692;45.642;13.806;2023-04-30T03:47:57;13.30;99.90
36444;DHT22;24692;45.642;13.806;2023-04-30T03:50:23;13.30;99.90
36444;DHT22;24692;45.642;13.806;2023-04-30T03:52:48;13.20;99.90
36444;DHT22;24692;45.642;13.806;2023-04-30T03:55:14;13.20;99.90
36444;DHT22;24692;45.642;13.806;2023-04-30T03:57:40;13.20;99.90
36444;DHT22;24692;45.642;13.806;2023-04-30T04:00:08;13.10;99.90
36444;DHT22;24692;45.642;13.806;2023-04-30T04:02:35;13.10;99.90
36444;DHT22;24692;45.642;13.806;2023-04-30T04:05:01;13.10;99.90
36444;DHT22;24692;45.642;13.806;2023-04-30T04:07:27;13.00;99.90
36444;DHT22;24692;45.642;13.806;2023-04-30T04:09:53;12.90;99.90
36444;DHT22;24692;45.642;13.806;2023-04-30T04:12:18;12.90;99.90
36444;DHT22;24692;45.642;13.806;2023-04-30T04:14:44;12.90;99.90
36444;DHT22;24692;45.642;13.806;2023-04-30T04:17:10;12.90;99.90
36444;DHT22;24692;45.642;13.806;2023-04-30T04:19:36;12.90;99.90
36444;DHT22;24692;45.642;13.806;2023-04-30T04:22:01;12.90;99.90
36444;DHT22;24692;45.642;13.806;2023-04-30T04:24:27;13.00;99.90
36444;DHT22;24692;45.642;13.806;2023-04-30T04:26:52;13.00;99.90
36444;DHT22;24692;45.642;13.806;2023-04-30T04:29:19;13.10;99.90
36444;DHT22;24692;45.642;13.806;2023-04-30T04:31:44;13.20;99.90
36444;DHT22;24692;45.642;13.806;2023-04-30T04:34:13;13.40;99.90
36444;DHT22;24692;45.642;13.806;2023-04-30T04:36:39;13.40;99.90
36444;DHT22;24692;45.642;13.806;2023-04-30T04:39:04;13.50;99.90
36444;DHT22;24692;45.642;13.806;2023-04-30T04:41:32;13.50;99.90
36444;DHT22;24692;45.642;13.806;2023-04-30T04:43:58;13.50;99.90
36444;DHT22;24692;45.642;13.806;2023-04-30T04:46:25;13.50;99.90
36444;DHT22;24692;45.642;13.806;2023-04-30T04:48:53;13.50;99.90
36444;DHT22;24692;45.642;13.806;2023-04-30T04:51:19;13.50;99.90
36444;DHT22;24692;45.642;13.806;2023-04-30T04:53:45;13.40;99.90
36444;DHT22;24692;45.642;13.806;2023-04-30T04:56:11;13.50;99.90
36444;DHT22;24692;45.642;13.806;2023-04-30T04:58:37;13.60;99.90
36444;DHT22;24692;45.642;13.806;2023-04-30T05:01:03;13.60;99.90
36444;DHT22;24692;45.642;13.806;2023-04-30T05:03:30;13.80;99.90
36444;DHT22;24692;45.642;13.806;2023-04-30T05:05:57;13.90;99.90
36444;DHT22;24692;45.642;13.806;2023-04-30T05:08:22;14.00;99.90
36444;DHT22;24692;45.642;13.806;2023-04-30T05:10:48;14.10;99.90
36444;DHT22;24692;45.642;13.806;2023-04-30T05:13:13;14.20;99.90
36444;DHT22;24692;45.642;13.806;2023-04-30T05:15:39;14.40;99.90
36444;DHT22;24692;45.642;13.806;2023-04-30T05:18:05;14.70;99.90
36444;DHT22;24692;45.642;13.806;2023-04-30T05:20:30;14.80;99.90
36444;DHT22;24692;45.642;13.806;2023-04-30T05:22:56;15.00;99.90
36444;DHT22;24692;45.642;13.806;2023-04-30T05:25:22;15.10;99.90
36444;DHT22;24692;45.642;13.806;2023-04-30T05:27:48;15.20;99.90
36444;DHT22;24692;45.642;13.806;2023-04-30T05:30:14;15.40;99.90
36444;DHT22;24692;45.642;13.806;2023-04-30T05:32:40;15.60;99.90
36444;DHT22;24692;45.642;13.806;2023-04-30T05:35:07;15.70;99.90
36444;DHT22;24692;45.642;13.806;2023-04-30T05:37:32;15.90;99.90
36444;DHT22;24692;45.642;13.806;2023-04-30T05:39:58;16.00;99.90
36444;DHT22;24692;45.642;13.806;2023-04-30T05:42:24;16.10;99.90
36444;DHT22;24692;45.642;13.806;2023-04-30T05:44:50;16.20;99.90
36444;DHT22;24692;45.642;13.806;2023-04-30T05:47:15;16.30;99.90
36444;DHT22;24692;45.642;13.806;2023-04-30T05:49:41;16.40;99.90
36444;DHT22;24692;45.642;13.806;2023-04-30T05:52:07;16.50;99.90
36444;DHT22;24692;45.642;13.806;2023-04-30T05:54:32;16.60;99.90
36444;DHT22;24692;45.642;13.806;2023-04-30T05:56:58;16.70;99.90
36444;DHT22;24692;45.642;13.806;2023-04-30T05:59:24;16.80;99.90
36444;DHT22;24692;45.642;13.806;2023-04-30T06:01:50;16.90;99.90
36444;DHT22;24692;45.642;13.806;2023-04-30T06:04:16;17.00;99.90
36444;DHT22;24692;45.642;13.806;2023-04-30T06:06:42;17.10;99.90
36444;DHT22;24692;45.642;13.806;2023-04-30T06:09:07;17.10;99.90
36444;DHT22;24692;45.642;13.806;2023-04-30T06:11:34;17.20;99.90
36444;DHT22;24692;45.642;13.806;2023-04-30T06:13:59;17.40;99.90
36444;DHT22;24692;45.642;13.806;2023-04-30T06:16:25;17.50;99.90
36444;DHT22;24692;45.642;13.806;2023-04-30T06:18:51;17.70;99.90
36444;DHT22;24692;45.642;13.806;2023-04-30T06:21:16;17.90;99.90
36444;DHT22;24692;45.642;13.806;2023-04-30T06:23:42;18.00;99.90
36444;DHT22;24692;45.642;13.806;2023-04-30T06:26:08;18.10;99.90
36444;DHT22;24692;45.642;13.806;2023-04-30T06:28:33;18.20;99.90
36444;DHT22;24692;45.642;13.806;2023-04-30T06:30:59;18.30;99.90
36444;DHT22;24692;45.642;13.806;2023-04-30T06:33:25;18.40;99.90
36444;DHT22;24692;45.642;13.806;2023-04-30T06:35:51;18.50;99.90
36444;DHT22;24692;45.642;13.806;2023-04-30T06:38:19;18.60;99.90
36444;DHT22;24692;45.642;13.806;2023-04-30T06:40:45;18.90;99.90
36444;DHT22;24692;45.642;13.806;2023-04-30T06:43:11;19.20;99.90
36444;DHT22;24692;45.642;13.806;2023-04-30T06:45:38;19.40;99.90
36444;DHT22;24692;45.642;13.806;2023-04-30T06:48:04;19.50;99.90
36444;DHT22;24692;45.642;13.806;2023-04-30T06:50:30;19.50;99.90
36444;DHT22;24692;45.642;13.806;2023-04-30T06:52:55;19.60;99.90
36444;DHT22;24692;45.642;13.806;2023-04-30T06:55:21;19.80;99.90
36444;DHT22;24692;45.642;13.806;2023-04-30T06:57:47;20.00;99.90
36444;DHT22;24692;45.642;13.806;2023-04-30T07:00:12;20.20;99.90
36444;DHT22;24692;45.642;13.806;2023-04-30T07:02:40;20.40;99.90
36444;DHT22;24692;45.642;13.806;2023-04-30T07:05:05;20.50;99.90
36444;DHT22;24692;45.642;13.806;2023-04-30T07:07:31;20.50;99.90
36444;DHT22;24692;45.642;13.806;2023-04-30T07:09:58;20.70;99.90
36444;DHT22;24692;45.642;13.806;2023-04-30T07:12:23;20.70;99.90
36444;DHT22;24692;45.642;13.806;2023-04-30T07:14:49;20.60;99.90
36444;DHT22;24692;45.642;13.806;2023-04-30T07:17:15;20.60;99.90
36444;DHT22;24692;45.642;13.806;2023-04-30T07:19:40;20.70;99.90
36444;DHT22;24692;45.642;13.806;2023-04-30T07:22:06;20.60;99.90
36444;DHT22;24692;45.642;13.806;2023-04-30T07:24:31;20.80;99.90
36444;DHT22;24692;45.642;13.806;2023-04-30T07:26:57;21.00;99.90
36444;DHT22;24692;45.642;13.806;2023-04-30T07:29:27;21.30;99.90
36444;DHT22;24692;45.642;13.806;2023-04-30T07:31:54;21.40;99.90
36444;DHT22;24692;45.642;13.806;2023-04-30T07:34:19;21.30;99.90
36444;DHT22;24692;45.642;13.806;2023-04-30T07:36:46;20.90;99.90
36444;DHT22;24692;45.642;13.806;2023-04-30T07:39:12;20.70;99.90
36444;DHT22;24692;45.642;13.806;2023-04-30T07:41:38;20.70;99.90
36444;DHT22;24692;45.642;13.806;2023-04-30T07:44:04;20.80;99.90
36444;DHT22;24692;45.642;13.806;2023-04-30T07:46:29;20.60;99.90
36444;DHT22;24692;45.642;13.806;2023-04-30T07:48:55;20.30;99.90
36444;DHT22;24692;45.642;13.806;2023-04-30T07:51:21;20.40;99.90
36444;DHT22;24692;45.642;13.806;2023-04-30T07:53:47;20.50;99.90
36444;DHT22;24692;45.642;13.806;2023-04-30T07:56:12;20.60;99.90
36444;DHT22;24692;45.642;13.806;2023-04-30T07:58:38;20.80;99.90
36444;DHT22;24692;45.642;13.806;2023-04-30T08:01:04;20.70;99.90
36444;DHT22;24692;45.642;13.806;2023-04-30T08:03:29;20.90;99.90
36444;DHT22;24692;45.642;13.806;2023-04-30T08:05:55;21.30;99.90
36444;DHT22;24692;45.642;13.806;2023-04-30T08:08:21;21.50;99.90
36444;DHT22;24692;45.642;13.806;2023-04-30T08:10:46;21.60;99.90
36444;DHT22;24692;45.642;13.806;2023-04-30T08:13:12;21.50;99.90
36444;DHT22;24692;45.642;13.806;2023-04-30T08:15:37;21.60;99.90
36444;DHT22;24692;45.642;13.806;2023-04-30T08:18:04;21.80;99.90
36444;DHT22;24692;45.642;13.806;2023-04-30T08:20:31;22.00;99.90
36444;DHT22;24692;45.642;13.806;2023-04-30T08:22:57;22.20;99.90
36444;DHT22;24692;45.642;13.806;2023-04-30T08:25:23;22.50;99.90
36444;DHT22;24692;45.642;13.806;2023-04-30T08:27:48;22.50;99.90
36444;DHT22;24692;45.642;13.806;2023-04-30T08:30:14;22.20;99.90
36444;DHT22;24692;45.642;13.806;2023-04-30T08:32:40;22.30;99.90
36444;DHT22;24692;45.642;13.806;2023-04-30T08:35:06;23.00;99.90
36444;DHT22;24692;45.642;13.806;2023-04-30T08:37:32;23.40;99.90
36444;DHT22;24692;45.642;13.806;2023-04-30T08:39:58;23.50;99.90
36444;DHT22;24692;45.642;13.806;2023-04-30T08:42:30;23.60;99.90
36444;DHT22;24692;45.642;13.806;2023-04-30T08:44:58;23.80;99.90
36444;DHT22;24692;45.642;13.806;2023-04-30T08:47:25;25.40;99.90
36444;DHT22;24692;45.642;13.806;2023-04-30T08:49:52;26.70;99.90
36444;DHT22;24692;45.642;13.806;2023-04-30T08:52:18;27.00;99.90
36444;DHT22;24692;45.642;13.806;2023-04-30T08:54:45;26.90;99.90
36444;DHT22;24692;45.642;13.806;2023-04-30T08:57:12;26.90;99.90
36444;DHT22;24692;45.642;13.806;2023-04-30T08:59:38;26.60;99.90
36444;DHT22;24692;45.642;13.806;2023-04-30T09:02:03;26.00;99.90
36444;DHT22;24692;45.642;13.806;2023-04-30T09:04:30;25.60;99.90
36444;DHT22;24692;45.642;13.806;2023-04-30T09:06:55;25.00;99.90
36444;DHT22;24692;45.642;13.806;2023-04-30T09:09:28;24.50;99.90
36444;DHT22;24692;45.642;13.806;2023-04-30T09:14:39;23.90;99.90
36444;DHT22;24692;45.642;13.806;2023-04-30T09:17:06;23.60;99.90
36444;DHT22;24692;45.642;13.806;2023-04-30T09:19:33;23.10;99.90
36444;DHT22;24692;45.642;13.806;2023-04-30T09:22:08;23.30;99.90
36444;DHT22;24692;45.642;13.806;2023-04-30T09:24:46;23.50;99.90
36444;DHT22;24692;45.642;13.806;2023-04-30T09:27:17;23.70;99.90
36444;DHT22;24692;45.642;13.806;2023-04-30T09:29:43;23.60;99.90
36444;DHT22;24692;45.642;13.806;2023-04-30T09:32:10;23.30;99.90
36444;DHT22;24692;45.642;13.806;2023-04-30T09:34:36;23.40;99.90
36444;DHT22;24692;45.642;13.806;2023-04-30T09:37:02;23.40;99.90
36444;DHT22;24692;45.642;13.806;2023-04-30T09:39:29;23.40;99.90
36444;DHT22;24692;45.642;13.806;2023-04-30T09:42:15;23.60;99.90
36444;DHT22;24692;45.642;13.806;2023-04-30T09:44:42;24.00;99.90
36444;DHT22;24692;45.642;13.806;2023-04-30T09:47:15;24.30;99.90
36444;DHT22;24692;45.642;13.806;2023-04-30T09:49:42;24.10;99.90
36444;DHT22;24692;45.642;13.806;2023-04-30T09:52:09;24.20;99.90
36444;DHT22;24692;45.642;13.806;2023-04-30T09:54:35;25.30;99.90
36444;DHT22;24692;45.642;13.806;2023-04-30T09:57:02;27.50;99.90
36444;DHT22;24692;45.642;13.806;2023-04-30T09:59:32;28.20;99.90
36444;DHT22;24692;45.642;13.806;2023-04-30T10:02:07;28.20;99.90
36444;DHT22;24692;45.642;13.806;2023-04-30T10:04:38;27.70;99.90
36444;DHT22;24692;45.642;13.806;2023-04-30T10:07:24;27.00;99.90
36444;DHT22;24692;45.642;13.806;2023-04-30T10:09:57;26.20;99.90
36444;DHT22;24692;45.642;13.806;2023-04-30T10:12:26;25.80;99.90
36444;DHT22;24692;45.642;13.806;2023-04-30T10:15:04;25.20;99.90
36444;DHT22;24692;45.642;13.806;2023-04-30T10:17:32;25.50;99.90
36444;DHT22;24692;45.642;13.806;2023-04-30T10:20:02;26.20;99.90
36444;DHT22;24692;45.642;13.806;2023-04-30T10:22:33;26.70;99.90
36444;DHT22;24692;45.642;13.806;2023-04-30T10:25:00;27.10;99.90
36444;DHT22;24692;45.642;13.806;2023-04-30T10:27:27;27.30;99.90
36444;DHT22;24692;45.642;13.806;2023-04-30T10:29:54;26.60;99.90
36444;DHT22;24692;45.642;13.806;2023-04-30T10:32:20;25.90;99.90
36444;DHT22;24692;45.642;13.806;2023-04-30T10:34:58;25.40;99.90
36444;DHT22;24692;45.642;13.806;2023-04-30T10:37:38;25.10;99.90
36444;DHT22;24692;45.642;13.806;2023-04-30T10:40:05;24.90;99.90
36444;DHT22;24692;45.642;13.806;2023-04-30T10:42:35;24.80;99.90
36444;DHT22;24692;45.642;13.806;2023-04-30T10:45:02;25.00;99.90
36444;DHT22;24692;45.642;13.806;2023-04-30T10:47:28;25.00;99.90
36444;DHT22;24692;45.642;13.806;2023-04-30T10:50:08;24.90;99.90
36444;DHT22;24692;45.642;13.806;2023-04-30T10:52:33;26.20;99.90
36444;DHT22;24692;45.642;13.806;2023-04-30T10:55:06;27.60;99.90
36444;DHT22;24692;45.642;13.806;2023-04-30T10:57:40;28.50;99.90
36444;DHT22;24692;45.642;13.806;2023-04-30T11:02:44;28.40;99.90
36444;DHT22;24692;45.642;13.806;2023-04-30T11:05:13;28.30;99.90
36444;DHT22;24692;45.642;13.806;2023-04-30T11:10:14;30.70;99.90
36444;DHT22;24692;45.642;13.806;2023-04-30T11:12:43;31.90;99.90
36444;DHT22;24692;45.642;13.806;2023-04-30T11:15:13;30.60;99.90
36444;DHT22;24692;45.642;13.806;2023-04-30T11:17:39;29.60;99.90
36444;DHT22;24692;45.642;13.806;2023-04-30T11:20:05;30.40;99.90
36444;DHT22;24692;45.642;13.806;2023-04-30T11:22:31;30.10;99.90
36444;DHT22;24692;45.642;13.806;2023-04-30T11:25:05;28.90;99.90
36444;DHT22;24692;45.642;13.806;2023-04-30T11:27:35;28.20;99.90
36444;DHT22;24692;45.642;13.806;2023-04-30T11:30:02;29.60;99.90
36444;DHT22;24692;45.642;13.806;2023-04-30T11:32:34;31.00;99.90
36444;DHT22;24692;45.642;13.806;2023-04-30T11:35:04;30.90;99.70
36444;DHT22;24692;45.642;13.806;2023-04-30T11:40:03;29.10;98.90
36444;DHT22;24692;45.642;13.806;2023-04-30T11:42:30;29.50;99.80
36444;DHT22;24692;45.642;13.806;2023-04-30T11:45:16;31.00;98.60
36444;DHT22;24692;45.642;13.806;2023-04-30T11:47:52;32.20;97.40
36444;DHT22;24692;45.642;13.806;2023-04-30T11:50:20;31.50;95.60
36444;DHT22;24692;45.642;13.806;2023-04-30T11:52:52;30.60;96.40
36444;DHT22;24692;45.642;13.806;2023-04-30T11:55:20;29.90;96.00
36444;DHT22;24692;45.642;13.806;2023-04-30T11:57:51;29.00;96.40
36444;DHT22;24692;45.642;13.806;2023-04-30T12:00:19;28.40;97.40
36444;DHT22;24692;45.642;13.806;2023-04-30T12:02:47;27.80;97.10
36444;DHT22;24692;45.642;13.806;2023-04-30T12:05:16;27.40;98.60
36444;DHT22;24692;45.642;13.806;2023-04-30T12:07:50;27.40;99.30
36444;DHT22;24692;45.642;13.806;2023-04-30T12:10:18;27.10;99.40
36444;DHT22;24692;45.642;13.806;2023-04-30T12:12:44;27.10;99.30
36444;DHT22;24692;45.642;13.806;2023-04-30T12:15:20;27.10;99.20
36444;DHT22;24692;45.642;13.806;2023-04-30T12:17:57;27.20;99.00
36444;DHT22;24692;45.642;13.806;2023-04-30T12:20:25;27.30;99.40
36444;DHT22;24692;45.642;13.806;2023-04-30T12:22:51;27.40;99.80
36444;DHT22;24692;45.642;13.806;2023-04-30T12:25:19;26.70;99.70
36444;DHT22;24692;45.642;13.806;2023-04-30T12:27:54;26.50;99.90
36444;DHT22;24692;45.642;13.806;2023-04-30T12:30:24;26.60;99.20
36444;DHT22;24692;45.642;13.806;2023-04-30T12:32:53;26.60;99.20
36444;DHT22;24692;45.642;13.806;2023-04-30T12:35:22;26.30;99.60
36444;DHT22;24692;45.642;13.806;2023-04-30T12:37:50;26.10;99.80
36444;DHT22;24692;45.642;13.806;2023-04-30T12:40:20;25.90;99.90
36444;DHT22;24692;45.642;13.806;2023-04-30T12:42:47;26.10;99.90
36444;DHT22;24692;45.642;13.806;2023-04-30T12:48:07;26.20;99.40
36444;DHT22;24692;45.642;13.806;2023-04-30T12:50:33;25.90;99.90
36444;DHT22;24692;45.642;13.806;2023-04-30T12:53:01;25.70;99.90
36444;DHT22;24692;45.642;13.806;2023-04-30T12:55:27;25.70;99.90
36444;DHT22;24692;45.642;13.806;2023-04-30T13:01:02;25.70;99.90
36444;DHT22;24692;45.642;13.806;2023-04-30T13:03:27;25.40;99.90
36444;DHT22;24692;45.642;13.806;2023-04-30T13:05:53;25.50;99.90
36444;DHT22;24692;45.642;13.806;2023-04-30T13:08:20;25.50;99.90
36444;DHT22;24692;45.642;13.806;2023-04-30T13:10:47;25.70;99.90
36444;DHT22;24692;45.642;13.806;2023-04-30T13:13:14;25.80;99.90
36444;DHT22;24692;45.642;13.806;2023-04-30T13:15:41;25.80;99.90
36444;DHT22;24692;45.642;13.806;2023-04-30T13:18:07;25.70;99.90
36444;DHT22;24692;45.642;13.806;2023-04-30T13:20:37;25.50;99.90
36444;DHT22;24692;45.642;13.806;2023-04-30T13:23:04;25.30;99.90
36444;DHT22;24692;45.642;13.806;2023-04-30T13:25:31;25.00;99.90
36444;DHT22;24692;45.642;13.806;2023-04-30T13:27:57;24.90;99.90
36444;DHT22;24692;45.642;13.806;2023-04-30T13:30:23;25.00;99.90
36444;DHT22;24692;45.642;13.806;2023-04-30T13:32:49;25.00;99.90
36444;DHT22;24692;45.642;13.806;2023-04-30T13:35:16;25.00;99.90
36444;DHT22;24692;45.642;13.806;2023-04-30T13:37:42;25.00;99.90
36444;DHT22;24692;45.642;13.806;2023-04-30T13:40:08;24.80;99.90
36444;DHT22;24692;45.642;13.806;2023-04-30T13:42:36;24.90;99.90
36444;DHT22;24692;45.642;13.806;2023-04-30T13:45:03;25.00;99.90
36444;DHT22;24692;45.642;13.806;2023-04-30T13:47:29;24.70;99.90
36444;DHT22;24692;45.642;13.806;2023-04-30T13:49:54;24.70;99.90
36444;DHT22;24692;45.642;13.806;2023-04-30T13:52:20;24.80;99.90
36444;DHT22;24692;45.642;13.806;2023-04-30T13:54:46;25.00;99.90
36444;DHT22;24692;45.642;13.806;2023-04-30T13:57:12;25.20;99.90
36444;DHT22;24692;45.642;13.806;2023-04-30T13:59:37;25.40;99.90
36444;DHT22;24692;45.642;13.806;2023-04-30T14:02:03;25.40;99.90
36444;DHT22;24692;45.642;13.806;2023-04-30T14:04:29;25.40;99.90
36444;DHT22;24692;45.642;13.806;2023-04-30T14:06:55;25.40;99.90
36444;DHT22;24692;45.642;13.806;2023-04-30T14:09:22;25.20;99.90
36444;DHT22;24692;45.642;13.806;2023-04-30T14:11:47;25.00;99.90
36444;DHT22;24692;45.642;13.806;2023-04-30T14:14:13;24.80;99.90
36444;DHT22;24692;45.642;13.806;2023-04-30T14:16:39;24.40;99.90
36444;DHT22;24692;45.642;13.806;2023-04-30T14:19:05;24.40;99.90
36444;DHT22;24692;45.642;13.806;2023-04-30T14:21:30;24.50;99.90
36444;DHT22;24692;45.642;13.806;2023-04-30T14:23:57;24.40;99.90
36444;DHT22;24692;45.642;13.806;2023-04-30T14:26:23;24.30;99.90
36444;DHT22;24692;45.642;13.806;2023-04-30T14:28:49;24.30;99.90
36444;DHT22;24692;45.642;13.806;2023-04-30T14:31:14;24.30;99.90
36444;DHT22;24692;45.642;13.806;2023-04-30T14:33:40;24.30;99.90
36444;DHT22;24692;45.642;13.806;2023-04-30T14:36:06;24.40;99.90
36444;DHT22;24692;45.642;13.806;2023-04-30T14:38:32;24.60;99.90
36444;DHT22;24692;45.642;13.806;2023-04-30T14:40:58;24.60;99.90
36444;DHT22;24692;45.642;13.806;2023-04-30T14:43:24;24.70;99.90
36444;DHT22;24692;45.642;13.806;2023-04-30T14:45:50;24.70;99.90
36444;DHT22;24692;45.642;13.806;2023-04-30T14:48:16;24.70;99.90
36444;DHT22;24692;45.642;13.806;2023-04-30T14:50:44;24.80;99.90
36444;DHT22;24692;45.642;13.806;2023-04-30T14:53:10;24.80;99.90
36444;DHT22;24692;45.642;13.806;2023-04-30T14:55:40;24.80;99.90
36444;DHT22;24692;45.642;13.806;2023-04-30T14:58:06;24.80;99.90
36444;DHT22;24692;45.642;13.806;2023-04-30T15:00:32;24.80;99.90
36444;DHT22;24692;45.642;13.806;2023-04-30T15:02:58;25.20;99.90
36444;DHT22;24692;45.642;13.806;2023-04-30T15:05:24;25.70;99.80
36444;DHT22;24692;45.642;13.806;2023-04-30T15:07:50;26.10;99.60
36444;DHT22;24692;45.642;13.806;2023-04-30T15:10:16;26.50;99.90
36444;DHT22;24692;45.642;13.806;2023-04-30T15:12:42;26.90;99.10
36444;DHT22;24692;45.642;13.806;2023-04-30T15:15:08;27.90;99.40
36444;DHT22;24692;45.642;13.806;2023-04-30T15:17:34;28.50;98.20
36444;DHT22;24692;45.642;13.806;2023-04-30T15:20:05;29.40;97.50
36444;DHT22;24692;45.642;13.806;2023-04-30T15:22:31;30.00;96.80
36444;DHT22;24692;45.642;13.806;2023-04-30T15:24:58;30.30;96.40
36444;DHT22;24692;45.642;13.806;2023-04-30T15:27:26;29.80;96.00
36444;DHT22;24692;45.642;13.806;2023-04-30T15:29:52;28.70;95.80
36444;DHT22;24692;45.642;13.806;2023-04-30T15:32:18;28.50;95.90
36444;DHT22;24692;45.642;13.806;2023-04-30T15:34:44;29.00;95.40
36444;DHT22;24692;45.642;13.806;2023-04-30T15:37:10;29.30;94.50
36444;DHT22;24692;45.642;13.806;2023-04-30T15:39:36;28.80;99.90
36444;DHT22;24692;45.642;13.806;2023-04-30T15:42:01;28.00;99.90
36444;DHT22;24692;45.642;13.806;2023-04-30T15:44:27;26.30;99.90
36444;DHT22;24692;45.642;13.806;2023-04-30T15:46:53;25.40;99.90